sensor_id;sensor_type;location;lat;lon;timestamp;temperature;humidity
74178;DHT22;62540;48.456;-4.456;2022-08-21T00:01:20;19.94;64.09
74178;DHT22;62540;48.456;-4.456;2022-08-21T00:03:47;19.97;63.88
74178;DHT22;62540;48.456;-4.456;2022-08-21T00:06:13;20.04;63.65
74178;DHT22;62540;48.456;-4.456;2022-08-21T00:08:38;20.05;63.81
74178;DHT22;62540;48.456;-4.456;2022-08-21T00:11:06;20.08;63.58
74178;DHT22;62540;48.456;-4.456;2022-08-21T00:13:32;20.08;63.25
74178;DHT22;62540;48.456;-4.456;2022-08-21T00:15:57;20.08;63.28
74178;DHT22;62540;48.456;-4.456;2022-08-21T00:18:24;20.12;63.43
74178;DHT22;62540;48.456;-4.456;2022-08-21T00:20:50;20.10;63.23
74178;DHT22;62540;48.456;-4.456;2022-08-21T00:23:16;20.08;63.41
74178;DHT22;62540;48.456;-4.456;2022-08-21T00:25:43;20.11;63.10
74178;DHT22;62540;48.456;-4.456;2022-08-21T00:28:09;20.14;62.79
74178;DHT22;62540;48.456;-4.456;2022-08-21T00:30:34;20.11;62.78
74178;DHT22;62540;48.456;-4.456;2022-08-21T00:33:00;20.12;62.76
74178;DHT22;62540;48.456;-4.456;2022-08-21T00:35:30;20.11;62.76
74178;DHT22;62540;48.456;-4.456;2022-08-21T00:37:56;20.11;63.09
74178;DHT22;62540;48.456;-4.456;2022-08-21T00:40:27;20.08;62.65
74178;DHT22;62540;48.456;-4.456;2022-08-21T00:42:53;20.05;63.00
74178;DHT22;62540;48.456;-4.456;2022-08-21T00:45:20;20.04;62.65
74178;DHT22;62540;48.456;-4.456;2022-08-21T00:47:46;20.07;62.52
74178;DHT22;62540;48.456;-4.456;2022-08-21T00:50:12;20.05;62.60
74178;DHT22;62540;48.456;-4.456;2022-08-21T00:52:39;20.02;62.96
74178;DHT22;62540;48.456;-4.456;2022-08-21T00:55:07;20.00;63.04
74178;DHT22;62540;48.456;-4.456;2022-08-21T00:57:38;20.00;62.87
74178;DHT22;62540;48.456;-4.456;2022-08-21T01:00:07;19.97;64.04
74178;DHT22;62540;48.456;-4.456;2022-08-21T01:02:33;19.97;63.37
74178;DHT22;62540;48.456;-4.456;2022-08-21T01:04:59;20.00;63.34
74178;DHT22;62540;48.456;-4.456;2022-08-21T01:07:24;20.00;63.33
74178;DHT22;62540;48.456;-4.456;2022-08-21T01:09:50;20.02;63.53
74178;DHT22;62540;48.456;-4.456;2022-08-21T01:12:16;20.04;63.34
74178;DHT22;62540;48.456;-4.456;2022-08-21T01:14:43;20.05;63.42
74178;DHT22;62540;48.456;-4.456;2022-08-21T01:17:09;20.07;63.62
74178;DHT22;62540;48.456;-4.456;2022-08-21T01:19:36;20.08;63.43
74178;DHT22;62540;48.456;-4.456;2022-08-21T01:22:02;20.11;63.19
74178;DHT22;62540;48.456;-4.456;2022-08-21T01:24:28;20.14;63.21
74178;DHT22;62540;48.456;-4.456;2022-08-21T01:26:54;20.10;63.15
74178;DHT22;62540;48.456;-4.456;2022-08-21T01:29:34;20.15;63.11
74178;DHT22;62540;48.456;-4.456;2022-08-21T01:32:05;20.15;63.39
74178;DHT22;62540;48.456;-4.456;2022-08-21T01:34:32;20.12;63.38
74178;DHT22;62540;48.456;-4.456;2022-08-21T01:36:58;20.17;63.44
74178;DHT22;62540;48.456;-4.456;2022-08-21T01:39:24;20.17;63.29
74178;DHT22;62540;48.456;-4.456;2022-08-21T01:41:49;20.21;63.27
74178;DHT22;62540;48.456;-4.456;2022-08-21T01:44:15;20.22;63.62
74178;DHT22;62540;48.456;-4.456;2022-08-21T01:46:40;20.24;63.73
74178;DHT22;62540;48.456;-4.456;2022-08-21T01:49:06;20.20;63.70
74178;DHT22;62540;48.456;-4.456;2022-08-21T01:51:32;20.18;63.73
74178;DHT22;62540;48.456;-4.456;2022-08-21T01:53:57;20.21;64.41
74178;DHT22;62540;48.456;-4.456;2022-08-21T01:56:24;20.22;63.47
74178;DHT22;62540;48.456;-4.456;2022-08-21T01:58:51;20.28;63.28
74178;DHT22;62540;48.456;-4.456;2022-08-21T02:01:16;20.28;63.29
74178;DHT22;62540;48.456;-4.456;2022-08-21T02:03:41;20.25;63.19
74178;DHT22;62540;48.456;-4.456;2022-08-21T02:06:12;20.28;63.41
74178;DHT22;62540;48.456;-4.456;2022-08-21T02:08:38;20.32;63.43
74178;DHT22;62540;48.456;-4.456;2022-08-21T02:11:04;20.32;63.50
74178;DHT22;62540;48.456;-4.456;2022-08-21T02:13:29;20.36;63.31
74178;DHT22;62540;48.456;-4.456;2022-08-21T02:15:55;20.38;63.45
74178;DHT22;62540;48.456;-4.456;2022-08-21T02:18:20;20.43;63.35
74178;DHT22;62540;48.456;-4.456;2022-08-21T02:20:48;20.43;63.46
74178;DHT22;62540;48.456;-4.456;2022-08-21T02:23:14;20.45;63.44
74178;DHT22;62540;48.456;-4.456;2022-08-21T02:25:41;20.46;63.37
74178;DHT22;62540;48.456;-4.456;2022-08-21T02:28:10;20.43;63.14
74178;DHT22;62540;48.456;-4.456;2022-08-21T02:30:44;20.46;63.61
74178;DHT22;62540;48.456;-4.456;2022-08-21T02:33:11;20.46;63.62
74178;DHT22;62540;48.456;-4.456;2022-08-21T02:35:39;20.43;64.77
74178;DHT22;62540;48.456;-4.456;2022-08-21T02:38:09;20.32;64.85
74178;DHT22;62540;48.456;-4.456;2022-08-21T02:40:38;20.26;65.23
74178;DHT22;62540;48.456;-4.456;2022-08-21T02:43:05;20.25;65.31
74178;DHT22;62540;48.456;-4.456;2022-08-21T02:45:31;20.24;65.26
74178;DHT22;62540;48.456;-4.456;2022-08-21T02:48:03;20.21;65.58
74178;DHT22;62540;48.456;-4.456;2022-08-21T02:50:32;20.22;65.65
74178;DHT22;62540;48.456;-4.456;2022-08-21T02:52:58;20.17;65.75
74178;DHT22;62540;48.456;-4.456;2022-08-21T02:55:27;20.17;65.63
74178;DHT22;62540;48.456;-4.456;2022-08-21T02:57:54;20.12;65.96
74178;DHT22;62540;48.456;-4.456;2022-08-21T03:00:21;20.07;65.88
74178;DHT22;62540;48.456;-4.456;2022-08-21T03:02:48;20.08;65.89
74178;DHT22;62540;48.456;-4.456;2022-08-21T03:05:14;20.10;65.95
74178;DHT22;62540;48.456;-4.456;2022-08-21T03:07:40;20.12;66.01
74178;DHT22;62540;48.456;-4.456;2022-08-21T03:10:07;20.14;66.02
74178;DHT22;62540;48.456;-4.456;2022-08-21T03:12:33;20.10;66.21
74178;DHT22;62540;48.456;-4.456;2022-08-21T03:15:04;20.14;65.80
74178;DHT22;62540;48.456;-4.456;2022-08-21T03:17:29;20.17;66.58
74178;DHT22;62540;48.456;-4.456;2022-08-21T03:19:54;20.17;66.13
74178;DHT22;62540;48.456;-4.456;2022-08-21T03:22:20;20.18;66.13
74178;DHT22;62540;48.456;-4.456;2022-08-21T03:24:45;20.18;66.13
74178;DHT22;62540;48.456;-4.456;2022-08-21T03:27:11;20.18;65.97
74178;DHT22;62540;48.456;-4.456;2022-08-21T03:29:38;20.22;66.17
74178;DHT22;62540;48.456;-4.456;2022-08-21T03:32:04;20.22;65.95
74178;DHT22;62540;48.456;-4.456;2022-08-21T03:34:29;20.18;66.57
74178;DHT22;62540;48.456;-4.456;2022-08-21T03:36:55;20.21;66.34
74178;DHT22;62540;48.456;-4.456;2022-08-21T03:39:20;20.20;66.21
74178;DHT22;62540;48.456;-4.456;2022-08-21T03:41:45;20.22;66.61
74178;DHT22;62540;48.456;-4.456;2022-08-21T03:44:12;20.21;66.72
74178;DHT22;62540;48.456;-4.456;2022-08-21T03:46:38;20.17;66.90
74178;DHT22;62540;48.456;-4.456;2022-08-21T03:49:05;20.18;66.78
74178;DHT22;62540;48.456;-4.456;2022-08-21T03:51:30;20.21;66.98
74178;DHT22;62540;48.456;-4.456;2022-08-21T03:53:57;20.18;67.39
74178;DHT22;62540;48.456;-4.456;2022-08-21T03:56:23;20.21;67.07
74178;DHT22;62540;48.456;-4.456;2022-08-21T03:58:48;20.21;67.01
74178;DHT22;62540;48.456;-4.456;2022-08-21T04:01:14;20.20;66.89
74178;DHT22;62540;48.456;-4.456;2022-08-21T04:03:39;20.21;66.94
74178;DHT22;62540;48.456;-4.456;2022-08-21T04:06:05;20.15;67.23
74178;DHT22;62540;48.456;-4.456;2022-08-21T04:08:31;20.05;67.13
74178;DHT22;62540;48.456;-4.456;2022-08-21T04:10:58;20.07;67.90
74178;DHT22;62540;48.456;-4.456;2022-08-21T04:13:24;20.02;67.56
74178;DHT22;62540;48.456;-4.456;2022-08-21T04:15:50;20.05;66.60
74178;DHT22;62540;48.456;-4.456;2022-08-21T04:18:16;20.08;66.92
74178;DHT22;62540;48.456;-4.456;2022-08-21T04:20:43;20.08;67.47
74178;DHT22;62540;48.456;-4.456;2022-08-21T04:23:09;20.01;67.35
74178;DHT22;62540;48.456;-4.456;2022-08-21T04:25:34;19.95;67.63
74178;DHT22;62540;48.456;-4.456;2022-08-21T04:28:00;19.91;67.68
74178;DHT22;62540;48.456;-4.456;2022-08-21T04:30:27;19.90;67.58
74178;DHT22;62540;48.456;-4.456;2022-08-21T04:32:52;19.93;68.20
74178;DHT22;62540;48.456;-4.456;2022-08-21T04:35:22;19.90;67.57
74178;DHT22;62540;48.456;-4.456;2022-08-21T04:37:48;19.88;67.71
74178;DHT22;62540;48.456;-4.456;2022-08-21T04:40:16;19.93;67.92
74178;DHT22;62540;48.456;-4.456;2022-08-21T04:42:47;19.87;67.26
74178;DHT22;62540;48.456;-4.456;2022-08-21T04:45:20;19.83;67.11
74178;DHT22;62540;48.456;-4.456;2022-08-21T04:47:51;19.78;67.07
74178;DHT22;62540;48.456;-4.456;2022-08-21T04:50:17;19.71;67.48
74178;DHT22;62540;48.456;-4.456;2022-08-21T04:52:43;19.74;67.75
74178;DHT22;62540;48.456;-4.456;2022-08-21T04:55:09;19.83;67.63
74178;DHT22;62540;48.456;-4.456;2022-08-21T04:57:34;19.84;67.37
74178;DHT22;62540;48.456;-4.456;2022-08-21T05:00:00;19.80;67.27
74178;DHT22;62540;48.456;-4.456;2022-08-21T05:02:26;19.78;67.39
74178;DHT22;62540;48.456;-4.456;2022-08-21T05:04:53;19.84;67.32
74178;DHT22;62540;48.456;-4.456;2022-08-21T05:07:23;19.87;67.48
74178;DHT22;62540;48.456;-4.456;2022-08-21T05:09:50;19.87;67.57
74178;DHT22;62540;48.456;-4.456;2022-08-21T05:12:16;19.84;67.82
74178;DHT22;62540;48.456;-4.456;2022-08-21T05:14:42;19.83;67.57
74178;DHT22;62540;48.456;-4.456;2022-08-21T05:17:08;19.84;67.91
74178;DHT22;62540;48.456;-4.456;2022-08-21T05:19:34;19.85;67.12
74178;DHT22;62540;48.456;-4.456;2022-08-21T05:21:59;19.81;67.36
74178;DHT22;62540;48.456;-4.456;2022-08-21T05:24:26;19.81;67.44
74178;DHT22;62540;48.456;-4.456;2022-08-21T05:26:52;19.81;67.27
74178;DHT22;62540;48.456;-4.456;2022-08-21T05:29:18;19.78;67.67
74178;DHT22;62540;48.456;-4.456;2022-08-21T05:31:45;19.81;67.69
74178;DHT22;62540;48.456;-4.456;2022-08-21T05:34:11;19.80;67.72
74178;DHT22;62540;48.456;-4.456;2022-08-21T05:36:36;19.81;67.74
74178;DHT22;62540;48.456;-4.456;2022-08-21T05:39:02;19.80;67.41
74178;DHT22;62540;48.456;-4.456;2022-08-21T05:41:28;19.78;68.09
74178;DHT22;62540;48.456;-4.456;2022-08-21T05:43:53;19.77;67.74
74178;DHT22;62540;48.456;-4.456;2022-08-21T05:46:19;19.73;67.64
74178;DHT22;62540;48.456;-4.456;2022-08-21T05:48:44;19.67;67.67
74178;DHT22;62540;48.456;-4.456;2022-08-21T05:51:12;19.60;68.13
74178;DHT22;62540;48.456;-4.456;2022-08-21T05:53:39;19.60;68.13
74178;DHT22;62540;48.456;-4.456;2022-08-21T05:56:05;19.63;68.08
74178;DHT22;62540;48.456;-4.456;2022-08-21T05:58:32;19.62;67.95
74178;DHT22;62540;48.456;-4.456;2022-08-21T06:00:58;19.64;68.85
74178;DHT22;62540;48.456;-4.456;2022-08-21T06:03:27;19.66;68.12
74178;DHT22;62540;48.456;-4.456;2022-08-21T06:05:53;19.70;68.18
74178;DHT22;62540;48.456;-4.456;2022-08-21T06:08:20;19.69;67.78
74178;DHT22;62540;48.456;-4.456;2022-08-21T06:10:47;19.70;67.79
74178;DHT22;62540;48.456;-4.456;2022-08-21T06:13:15;19.66;68.17
74178;DHT22;62540;48.456;-4.456;2022-08-21T06:15:41;19.63;68.17
74178;DHT22;62540;48.456;-4.456;2022-08-21T06:18:07;19.66;68.39
74178;DHT22;62540;48.456;-4.456;2022-08-21T06:20:32;19.73;68.13
74178;DHT22;62540;48.456;-4.456;2022-08-21T06:22:58;19.75;68.24
74178;DHT22;62540;48.456;-4.456;2022-08-21T06:25:24;19.77;67.91
74178;DHT22;62540;48.456;-4.456;2022-08-21T06:27:50;19.77;67.94
74178;DHT22;62540;48.456;-4.456;2022-08-21T06:30:16;19.81;68.29
74178;DHT22;62540;48.456;-4.456;2022-08-21T06:32:41;19.87;68.08
74178;DHT22;62540;48.456;-4.456;2022-08-21T06:35:07;19.85;68.36
74178;DHT22;62540;48.456;-4.456;2022-08-21T06:37:33;19.90;68.55
74178;DHT22;62540;48.456;-4.456;2022-08-21T06:39:58;19.91;68.28
74178;DHT22;62540;48.456;-4.456;2022-08-21T06:42:24;19.94;68.27
74178;DHT22;62540;48.456;-4.456;2022-08-21T06:44:49;19.94;68.48
74178;DHT22;62540;48.456;-4.456;2022-08-21T06:47:15;19.90;68.53
74178;DHT22;62540;48.456;-4.456;2022-08-21T06:49:40;19.87;68.71
74178;DHT22;62540;48.456;-4.456;2022-08-21T06:52:10;19.84;68.45
74178;DHT22;62540;48.456;-4.456;2022-08-21T06:54:36;19.87;68.63
74178;DHT22;62540;48.456;-4.456;2022-08-21T06:57:02;19.85;68.51
74178;DHT22;62540;48.456;-4.456;2022-08-21T06:59:27;19.91;68.37
74178;DHT22;62540;48.456;-4.456;2022-08-21T07:01:53;19.95;68.33
74178;DHT22;62540;48.456;-4.456;2022-08-21T07:04:18;19.95;68.56
74178;DHT22;62540;48.456;-4.456;2022-08-21T07:06:45;19.97;69.07
74178;DHT22;62540;48.456;-4.456;2022-08-21T07:09:10;20.00;68.43
74178;DHT22;62540;48.456;-4.456;2022-08-21T07:11:36;20.01;68.22
74178;DHT22;62540;48.456;-4.456;2022-08-21T07:14:03;20.01;68.56
74178;DHT22;62540;48.456;-4.456;2022-08-21T07:16:28;19.98;68.61
74178;DHT22;62540;48.456;-4.456;2022-08-21T07:18:54;19.95;68.56
74178;DHT22;62540;48.456;-4.456;2022-08-21T07:21:19;19.88;69.13
74178;DHT22;62540;48.456;-4.456;2022-08-21T07:23:48;19.87;69.53
74178;DHT22;62540;48.456;-4.456;2022-08-21T07:26:16;19.84;69.65
74178;DHT22;62540;48.456;-4.456;2022-08-21T07:28:42;19.90;69.47
74178;DHT22;62540;48.456;-4.456;2022-08-21T07:31:09;19.85;69.49
74178;DHT22;62540;48.456;-4.456;2022-08-21T07:33:35;19.84;69.65
74178;DHT22;62540;48.456;-4.456;2022-08-21T07:36:02;19.84;70.31
74178;DHT22;62540;48.456;-4.456;2022-08-21T07:38:28;19.85;69.83
74178;DHT22;62540;48.456;-4.456;2022-08-21T07:40:55;19.91;70.48
74178;DHT22;62540;48.456;-4.456;2022-08-21T07:43:22;19.84;70.66
74178;DHT22;62540;48.456;-4.456;2022-08-21T07:45:48;19.78;70.79
74178;DHT22;62540;48.456;-4.456;2022-08-21T07:48:15;19.77;70.58
74178;DHT22;62540;48.456;-4.456;2022-08-21T07:50:40;19.77;71.23
74178;DHT22;62540;48.456;-4.456;2022-08-21T07:53:06;19.83;71.14
74178;DHT22;62540;48.456;-4.456;2022-08-21T07:55:33;19.85;71.09
74178;DHT22;62540;48.456;-4.456;2022-08-21T07:57:58;19.91;71.38
74178;DHT22;62540;48.456;-4.456;2022-08-21T08:00:26;19.85;71.35
74178;DHT22;62540;48.456;-4.456;2022-08-21T08:02:52;19.83;71.49
74178;DHT22;62540;48.456;-4.456;2022-08-21T08:05:22;19.78;71.94
74178;DHT22;62540;48.456;-4.456;2022-08-21T08:07:48;19.77;72.23
74178;DHT22;62540;48.456;-4.456;2022-08-21T08:10:13;19.81;72.09
74178;DHT22;62540;48.456;-4.456;2022-08-21T08:12:41;19.90;72.16
74178;DHT22;62540;48.456;-4.456;2022-08-21T08:15:10;19.91;72.22
74178;DHT22;62540;48.456;-4.456;2022-08-21T08:17:36;19.95;72.03
74178;DHT22;62540;48.456;-4.456;2022-08-21T08:20:03;20.04;71.93
74178;DHT22;62540;48.456;-4.456;2022-08-21T08:22:28;20.07;71.72
74178;DHT22;62540;48.456;-4.456;2022-08-21T08:24:54;20.11;72.00
74178;DHT22;62540;48.456;-4.456;2022-08-21T08:27:22;20.14;72.19
74178;DHT22;62540;48.456;-4.456;2022-08-21T08:29:48;20.14;72.19
74178;DHT22;62540;48.456;-4.456;2022-08-21T08:32:14;20.22;72.45
74178;DHT22;62540;48.456;-4.456;2022-08-21T08:34:39;20.25;71.99
74178;DHT22;62540;48.456;-4.456;2022-08-21T08:37:06;20.24;72.21
74178;DHT22;62540;48.456;-4.456;2022-08-21T08:39:32;20.14;72.45
74178;DHT22;62540;48.456;-4.456;2022-08-21T08:42:13;20.12;72.63
74178;DHT22;62540;48.456;-4.456;2022-08-21T08:44:43;20.18;72.57
74178;DHT22;62540;48.456;-4.456;2022-08-21T08:47:13;20.17;73.44
74178;DHT22;62540;48.456;-4.456;2022-08-21T08:52:22;20.29;72.98
74178;DHT22;62540;48.456;-4.456;2022-08-21T08:55:02;20.41;72.83
74178;DHT22;62540;48.456;-4.456;2022-08-21T08:57:28;20.43;72.46
74178;DHT22;62540;48.456;-4.456;2022-08-21T08:59:58;20.48;71.73
74178;DHT22;62540;48.456;-4.456;2022-08-21T09:02:24;20.53;72.66
74178;DHT22;62540;48.456;-4.456;2022-08-21T09:04:53;20.57;72.05
74178;DHT22;62540;48.456;-4.456;2022-08-21T09:07:42;20.66;72.18
74178;DHT22;62540;48.456;-4.456;2022-08-21T09:10:27;20.86;72.01
74178;DHT22;62540;48.456;-4.456;2022-08-21T09:13:03;21.00;71.63
74178;DHT22;62540;48.456;-4.456;2022-08-21T09:21:10;21.45;70.84
74178;DHT22;62540;48.456;-4.456;2022-08-21T09:26:20;21.72;68.47
74178;DHT22;62540;48.456;-4.456;2022-08-21T09:28:54;21.76;69.06
74178;DHT22;62540;48.456;-4.456;2022-08-21T09:31:27;21.75;69.51
74178;DHT22;62540;48.456;-4.456;2022-08-21T09:34:03;21.88;70.52
74178;DHT22;62540;48.456;-4.456;2022-08-21T09:39:03;22.16;69.08
74178;DHT22;62540;48.456;-4.456;2022-08-21T09:41:31;22.26;68.26
74178;DHT22;62540;48.456;-4.456;2022-08-21T09:43:57;22.33;68.89
74178;DHT22;62540;48.456;-4.456;2022-08-21T09:46:25;22.34;67.87
74178;DHT22;62540;48.456;-4.456;2022-08-21T09:48:58;22.41;67.12
74178;DHT22;62540;48.456;-4.456;2022-08-21T09:51:35;22.47;67.82
74178;DHT22;62540;48.456;-4.456;2022-08-21T09:54:11;22.47;67.41
74178;DHT22;62540;48.456;-4.456;2022-08-21T09:56:50;22.50;68.20
74178;DHT22;62540;48.456;-4.456;2022-08-21T09:59:35;22.55;66.69
74178;DHT22;62540;48.456;-4.456;2022-08-21T10:02:32;22.69;67.64
74178;DHT22;62540;48.456;-4.456;2022-08-21T10:05:19;22.82;67.13
74178;DHT22;62540;48.456;-4.456;2022-08-21T10:07:46;22.88;68.19
74178;DHT22;62540;48.456;-4.456;2022-08-21T10:10:21;22.95;66.85
74178;DHT22;62540;48.456;-4.456;2022-08-21T10:12:53;22.85;65.23
74178;DHT22;62540;48.456;-4.456;2022-08-21T10:18:22;22.69;66.26
74178;DHT22;62540;48.456;-4.456;2022-08-21T10:21:17;22.72;65.84
74178;DHT22;62540;48.456;-4.456;2022-08-21T10:24:06;22.74;66.73
74178;DHT22;62540;48.456;-4.456;2022-08-21T10:26:48;22.85;66.37
74178;DHT22;62540;48.456;-4.456;2022-08-21T10:29:34;22.85;67.32
74178;DHT22;62540;48.456;-4.456;2022-08-21T10:48:57;23.77;65.33
74178;DHT22;62540;48.456;-4.456;2022-08-21T10:51:37;23.81;64.24
74178;DHT22;62540;48.456;-4.456;2022-08-21T10:56:43;23.80;63.96
74178;DHT22;62540;48.456;-4.456;2022-08-21T11:00:06;23.84;64.48
74178;DHT22;62540;48.456;-4.456;2022-08-21T11:02:20;23.80;64.20
74178;DHT22;62540;48.456;-4.456;2022-08-21T11:05:01;23.81;64.22
74178;DHT22;62540;48.456;-4.456;2022-08-21T11:07:31;23.80;64.18
74178;DHT22;62540;48.456;-4.456;2022-08-21T11:10:04;23.84;64.68
74178;DHT22;62540;48.456;-4.456;2022-08-21T11:12:46;23.90;64.69
74178;DHT22;62540;48.456;-4.456;2022-08-21T11:17:49;23.96;64.86
74178;DHT22;62540;48.456;-4.456;2022-08-21T11:20:26;23.91;63.13
74178;DHT22;62540;48.456;-4.456;2022-08-21T11:22:58;23.84;63.64
74178;DHT22;62540;48.456;-4.456;2022-08-21T11:28:00;23.87;64.81
74178;DHT22;62540;48.456;-4.456;2022-08-21T11:30:39;23.81;65.12
74178;DHT22;62540;48.456;-4.456;2022-08-21T11:36:27;23.77;66.03
74178;DHT22;62540;48.456;-4.456;2022-08-21T11:39:13;23.67;66.00
74178;DHT22;62540;48.456;-4.456;2022-08-21T11:42:46;23.69;66.58
74178;DHT22;62540;48.456;-4.456;2022-08-21T11:45:10;23.59;66.28
74178;DHT22;62540;48.456;-4.456;2022-08-21T11:50:15;23.61;66.26
74178;DHT22;62540;48.456;-4.456;2022-08-21T11:52:48;23.67;66.49
74178;DHT22;62540;48.456;-4.456;2022-08-21T11:55:19;23.64;66.00
74178;DHT22;62540;48.456;-4.456;2022-08-21T11:57:57;23.70;66.72
74178;DHT22;62540;48.456;-4.456;2022-08-21T12:00:29;23.84;66.64
74178;DHT22;62540;48.456;-4.456;2022-08-21T12:03:04;23.96;66.91
74178;DHT22;62540;48.456;-4.456;2022-08-21T12:05:34;24.14;66.70
74178;DHT22;62540;48.456;-4.456;2022-08-21T12:13:58;24.98;64.16
74178;DHT22;62540;48.456;-4.456;2022-08-21T12:19:11;25.38;63.61
74178;DHT22;62540;48.456;-4.456;2022-08-21T12:21:50;25.57;62.45
74178;DHT22;62540;48.456;-4.456;2022-08-21T12:24:18;25.69;62.29
74178;DHT22;62540;48.456;-4.456;2022-08-21T12:29:33;26.04;61.65
74178;DHT22;62540;48.456;-4.456;2022-08-21T12:35:00;25.82;60.31
74178;DHT22;62540;48.456;-4.456;2022-08-21T12:40:23;25.49;60.46
74178;DHT22;62540;48.456;-4.456;2022-08-21T12:42:52;25.38;60.59
74178;DHT22;62540;48.456;-4.456;2022-08-21T12:45:23;25.41;61.06
74178;DHT22;62540;48.456;-4.456;2022-08-21T12:48:06;25.41;60.40
74178;DHT22;62540;48.456;-4.456;2022-08-21T12:50:43;25.48;60.89
74178;DHT22;62540;48.456;-4.456;2022-08-21T12:55:56;25.72;60.97
74178;DHT22;62540;48.456;-4.456;2022-08-21T12:58:28;25.83;59.38
74178;DHT22;62540;48.456;-4.456;2022-08-21T13:01:06;25.75;58.34
74178;DHT22;62540;48.456;-4.456;2022-08-21T13:03:35;25.68;58.50
74178;DHT22;62540;48.456;-4.456;2022-08-21T13:06:05;25.65;58.91
74178;DHT22;62540;48.456;-4.456;2022-08-21T13:08:33;25.62;59.39
74178;DHT22;62540;48.456;-4.456;2022-08-21T13:11:03;25.72;58.72
74178;DHT22;62540;48.456;-4.456;2022-08-21T13:13:30;25.74;57.79
74178;DHT22;62540;48.456;-4.456;2022-08-21T13:16:02;25.83;57.82
74178;DHT22;62540;48.456;-4.456;2022-08-21T13:18:31;25.95;58.55
74178;DHT22;62540;48.456;-4.456;2022-08-21T13:21:12;26.13;56.56
74178;DHT22;62540;48.456;-4.456;2022-08-21T13:23:38;26.20;56.38
74178;DHT22;62540;48.456;-4.456;2022-08-21T13:26:19;26.20;53.98
74178;DHT22;62540;48.456;-4.456;2022-08-21T13:28:46;26.13;54.67
74178;DHT22;62540;48.456;-4.456;2022-08-21T13:31:18;26.20;55.52
74178;DHT22;62540;48.456;-4.456;2022-08-21T13:33:48;26.32;54.93
74178;DHT22;62540;48.456;-4.456;2022-08-21T13:36:18;26.45;55.86
74178;DHT22;62540;48.456;-4.456;2022-08-21T13:38:45;26.60;54.58
74178;DHT22;62540;48.456;-4.456;2022-08-21T13:41:23;26.57;53.54
74178;DHT22;62540;48.456;-4.456;2022-08-21T13:43:56;26.65;53.07
74178;DHT22;62540;48.456;-4.456;2022-08-21T13:46:24;26.51;51.98
74178;DHT22;62540;48.456;-4.456;2022-08-21T13:48:51;26.37;54.09
74178;DHT22;62540;48.456;-4.456;2022-08-21T13:51:17;26.40;53.96
74178;DHT22;62540;48.456;-4.456;2022-08-21T13:56:21;26.53;53.18
74178;DHT22;62540;48.456;-4.456;2022-08-21T13:58:47;26.48;54.59
74178;DHT22;62540;48.456;-4.456;2022-08-21T14:01:25;26.47;54.08
74178;DHT22;62540;48.456;-4.456;2022-08-21T14:03:55;26.36;53.03
74178;DHT22;62540;48.456;-4.456;2022-08-21T14:06:26;26.33;54.73
74178;DHT22;62540;48.456;-4.456;2022-08-21T14:08:56;26.23;55.43
74178;DHT22;62540;48.456;-4.456;2022-08-21T14:11:24;26.16;55.21
74178;DHT22;62540;48.456;-4.456;2022-08-21T14:13:57;26.10;55.55
74178;DHT22;62540;48.456;-4.456;2022-08-21T14:16:28;25.93;54.98
74178;DHT22;62540;48.456;-4.456;2022-08-21T14:21:32;25.72;56.26
74178;DHT22;62540;48.456;-4.456;2022-08-21T14:24:08;25.69;56.61
74178;DHT22;62540;48.456;-4.456;2022-08-21T14:26:36;25.79;56.11
74178;DHT22;62540;48.456;-4.456;2022-08-21T14:29:08;25.95;56.31
74178;DHT22;62540;48.456;-4.456;2022-08-21T14:31:34;25.89;55.69
74178;DHT22;62540;48.456;-4.456;2022-08-21T14:34:00;25.86;56.10
74178;DHT22;62540;48.456;-4.456;2022-08-21T14:36:26;25.89;55.07
74178;DHT22;62540;48.456;-4.456;2022-08-21T14:38:52;25.92;55.44
74178;DHT22;62540;48.456;-4.456;2022-08-21T14:41:25;25.95;55.53
74178;DHT22;62540;48.456;-4.456;2022-08-21T14:43:53;25.92;55.58
74178;DHT22;62540;48.456;-4.456;2022-08-21T14:46:25;25.86;55.27
74178;DHT22;62540;48.456;-4.456;2022-08-21T14:48:52;25.92;55.94
74178;DHT22;62540;48.456;-4.456;2022-08-21T14:51:17;25.90;54.79
74178;DHT22;62540;48.456;-4.456;2022-08-21T14:53:43;25.74;54.89
74178;DHT22;62540;48.456;-4.456;2022-08-21T14:56:09;25.57;55.60
74178;DHT22;62540;48.456;-4.456;2022-08-21T14:58:42;25.54;56.25
74178;DHT22;62540;48.456;-4.456;2022-08-21T15:01:09;25.54;56.23
74178;DHT22;62540;48.456;-4.456;2022-08-21T15:03:36;25.49;56.41
74178;DHT22;62540;48.456;-4.456;2022-08-21T15:06:03;25.54;55.68
74178;DHT22;62540;48.456;-4.456;2022-08-21T15:08:28;25.45;55.63
74178;DHT22;62540;48.456;-4.456;2022-08-21T15:10:55;25.41;55.73
74178;DHT22;62540;48.456;-4.456;2022-08-21T15:13:21;25.41;56.15
74178;DHT22;62540;48.456;-4.456;2022-08-21T15:15:48;25.41;56.16
74178;DHT22;62540;48.456;-4.456;2022-08-21T15:18:14;25.33;56.91
74178;DHT22;62540;48.456;-4.456;2022-08-21T15:20:40;25.37;57.36
74178;DHT22;62540;48.456;-4.456;2022-08-21T15:23:07;25.39;57.21
74178;DHT22;62540;48.456;-4.456;2022-08-21T15:25:33;25.44;57.74
74178;DHT22;62540;48.456;-4.456;2022-08-21T15:27:59;25.47;55.98
74178;DHT22;62540;48.456;-4.456;2022-08-21T15:30:26;25.41;56.18
74178;DHT22;62540;48.456;-4.456;2022-08-21T15:32:52;25.28;56.46
74178;DHT22;62540;48.456;-4.456;2022-08-21T15:35:18;25.35;56.95
74178;DHT22;62540;48.456;-4.456;2022-08-21T15:37:43;25.35;56.13
74178;DHT22;62540;48.456;-4.456;2022-08-21T15:40:10;25.33;56.63
74178;DHT22;62540;48.456;-4.456;2022-08-21T15:42:37;25.27;57.00
74178;DHT22;62540;48.456;-4.456;2022-08-21T15:45:04;25.18;56.62
74178;DHT22;62540;48.456;-4.456;2022-08-21T15:47:35;25.02;57.39
74178;DHT22;62540;48.456;-4.456;2022-08-21T15:50:03;24.96;57.99
74178;DHT22;62540;48.456;-4.456;2022-08-21T15:52:29;24.90;57.83
74178;DHT22;62540;48.456;-4.456;2022-08-21T15:54:54;24.86;58.25
74178;DHT22;62540;48.456;-4.456;2022-08-21T15:57:22;24.84;58.39
74178;DHT22;62540;48.456;-4.456;2022-08-21T15:59:54;24.75;58.64
74178;DHT22;62540;48.456;-4.456;2022-08-21T16:02:29;24.60;58.81
74178;DHT22;62540;48.456;-4.456;2022-08-21T16:04:56;24.56;59.28
74178;DHT22;62540;48.456;-4.456;2022-08-21T16:07:21;24.58;59.33
74178;DHT22;62540;48.456;-4.456;2022-08-21T16:09:47;24.59;58.84
74178;DHT22;62540;48.456;-4.456;2022-08-21T16:12:19;24.53;59.86
74178;DHT22;62540;48.456;-4.456;2022-08-21T16:14:46;24.62;59.21
74178;DHT22;62540;48.456;-4.456;2022-08-21T16:17:11;24.65;59.10
74178;DHT22;62540;48.456;-4.456;2022-08-21T16:19:37;24.60;58.94
74178;DHT22;62540;48.456;-4.456;2022-08-21T16:22:03;24.38;59.73
74178;DHT22;62540;48.456;-4.456;2022-08-21T16:24:29;24.29;60.17
74178;DHT22;62540;48.456;-4.456;2022-08-21T16:26:55;24.32;60.81
74178;DHT22;62540;48.456;-4.456;2022-08-21T16:29:21;24.24;61.02
74178;DHT22;62540;48.456;-4.456;2022-08-21T16:31:47;24.15;61.08
74178;DHT22;62540;48.456;-4.456;2022-08-21T16:34:16;24.15;61.00
74178;DHT22;62540;48.456;-4.456;2022-08-21T16:36:42;24.11;61.30